Hub


Voltar

 INFORMAÇÕES METEOROLÓGICAS

METAR FOR PAGN


ADDS - METARS form results

(2020 UTC 17 January 2019)
Data provider http://aviationweather.gov/metar/data/
 
METAR text: PAGN 171956Z AUTO 02006KT 10SM CLR M01/M02 A2962 RMK AO2 SLP019 T10061017 FZRANO
Conditions at: PAGN (ANGOON SEAPLANE , AK, US) observed 1956 UTC 17 January 2019
Temperature: -0.6°C (31°F)
Dewpoint: -1.7°C (29°F) [RH = 92%]
Pressure (altimeter): 29.62 inches Hg (1003.1 mb)
[Sea-level pressure: 1001.9 mb]
Winds: from the NNE (20 degrees) at 7 MPH (6 knots; 3.1 m/s)
Visibility: 10 or more miles (16+ km)
Ceiling: at least 12,000 feet AGL
Clouds: sky clear below 12,000 feet AGL
Weather: automated observation with no human augmentation;
there may or may not be significant weather present at this time


 MAPA DO AEROPORTO


 INFORMAÇÕES DA PISTA

Pista NW Tamanho da pista 10000 ft Largura da pista 900 ft
Elevação da pista 0 ft Ranhura da pista 0 ft Proa da pista 0
Pista SE Tamanho da pista 10000 ft Largura da pista 900 ft
Elevação da pista 0 ft Ranhura da pista 0 ft Proa da pista 0

 FREQUÊNCIAS DO AEROPORTO


 AUXÍLIOS DE NAVEGAÇÃO PRÓXIMOS AO AEROPORTO